sensor_id;sensor_type;location;lat;lon;timestamp;P1;durP1;ratioP1;P2;durP2;ratioP2
29416;SDS011;28421;51.030;4.006;2023-03-17T00:01:35;3.53;;;1.83;;
29416;SDS011;28421;51.030;4.006;2023-03-17T00:04:00;2.78;;;1.88;;
29416;SDS011;28421;51.030;4.006;2023-03-17T00:06:27;1.75;;;1.17;;
29416;SDS011;28421;51.030;4.006;2023-03-17T00:08:54;6.03;;;1.60;;
29416;SDS011;28421;51.030;4.006;2023-03-17T00:11:20;7.85;;;2.05;;
29416;SDS011;28421;51.030;4.006;2023-03-17T00:13:46;2.50;;;1.77;;
29416;SDS011;28421;51.030;4.006;2023-03-17T00:16:19;4.97;;;1.60;;
29416;SDS011;28421;51.030;4.006;2023-03-17T00:21:20;1.52;;;1.45;;
29416;SDS011;28421;51.030;4.006;2023-03-17T00:23:58;8.90;;;2.00;;
29416;SDS011;28421;51.030;4.006;2023-03-17T00:26:24;4.70;;;2.10;;
29416;SDS011;28421;51.030;4.006;2023-03-17T00:28:51;3.80;;;1.58;;
29416;SDS011;28421;51.030;4.006;2023-03-17T00:31:20;1.50;;;1.30;;
29416;SDS011;28421;51.030;4.006;2023-03-17T05:37:34;3.13;;;2.17;;
29416;SDS011;28421;51.030;4.006;2023-03-17T05:40:00;4.20;;;2.13;;
29416;SDS011;28421;51.030;4.006;2023-03-17T05:42:25;5.55;;;2.45;;
29416;SDS011;28421;51.030;4.006;2023-03-17T05:44:51;4.20;;;2.10;;
29416;SDS011;28421;51.030;4.006;2023-03-17T05:47:16;4.22;;;2.55;;
29416;SDS011;28421;51.030;4.006;2023-03-17T05:49:42;6.18;;;2.08;;
29416;SDS011;28421;51.030;4.006;2023-03-17T05:52:08;3.35;;;2.40;;
29416;SDS011;28421;51.030;4.006;2023-03-17T05:54:34;4.47;;;2.95;;
29416;SDS011;28421;51.030;4.006;2023-03-17T05:56:59;2.95;;;2.53;;
29416;SDS011;28421;51.030;4.006;2023-03-17T05:59:25;4.70;;;2.70;;
29416;SDS011;28421;51.030;4.006;2023-03-17T06:01:50;6.35;;;3.08;;
29416;SDS011;28421;51.030;4.006;2023-03-17T06:04:16;4.75;;;2.95;;
29416;SDS011;28421;51.030;4.006;2023-03-17T06:06:41;4.20;;;2.72;;
29416;SDS011;28421;51.030;4.006;2023-03-17T06:09:07;5.82;;;2.33;;
29416;SDS011;28421;51.030;4.006;2023-03-17T06:11:32;4.50;;;3.00;;
29416;SDS011;28421;51.030;4.006;2023-03-17T06:13:57;2.78;;;2.03;;
29416;SDS011;28421;51.030;4.006;2023-03-17T06:16:23;4.05;;;2.83;;
29416;SDS011;28421;51.030;4.006;2023-03-17T06:18:48;5.20;;;3.15;;
29416;SDS011;28421;51.030;4.006;2023-03-17T06:21:14;2.60;;;2.33;;
29416;SDS011;28421;51.030;4.006;2023-03-17T06:23:40;5.35;;;2.88;;
29416;SDS011;28421;51.030;4.006;2023-03-17T06:26:05;6.53;;;2.10;;
29416;SDS011;28421;51.030;4.006;2023-03-17T06:28:31;4.63;;;2.90;;
29416;SDS011;28421;51.030;4.006;2023-03-17T06:30:56;3.25;;;2.20;;
29416;SDS011;28421;51.030;4.006;2023-03-17T06:33:22;6.30;;;2.75;;
29416;SDS011;28421;51.030;4.006;2023-03-17T06:35:48;4.10;;;2.55;;
29416;SDS011;28421;51.030;4.006;2023-03-17T06:38:15;3.55;;;2.20;;
29416;SDS011;28421;51.030;4.006;2023-03-17T06:40:41;4.05;;;2.38;;
29416;SDS011;28421;51.030;4.006;2023-03-17T06:43:07;4.57;;;2.47;;
29416;SDS011;28421;51.030;4.006;2023-03-17T06:45:33;3.42;;;2.60;;
29416;SDS011;28421;51.030;4.006;2023-03-17T06:47:59;2.80;;;2.30;;
29416;SDS011;28421;51.030;4.006;2023-03-17T06:50:25;3.15;;;2.03;;
29416;SDS011;28421;51.030;4.006;2023-03-17T06:52:51;4.35;;;2.13;;
29416;SDS011;28421;51.030;4.006;2023-03-17T06:55:16;8.70;;;4.28;;
29416;SDS011;28421;51.030;4.006;2023-03-17T06:57:42;13.23;;;3.75;;
29416;SDS011;28421;51.030;4.006;2023-03-17T07:00:07;10.13;;;2.65;;
29416;SDS011;28421;51.030;4.006;2023-03-17T07:02:34;9.07;;;3.25;;
29416;SDS011;28421;51.030;4.006;2023-03-17T07:04:59;7.20;;;3.13;;
29416;SDS011;28421;51.030;4.006;2023-03-17T07:07:25;3.28;;;2.33;;
29416;SDS011;28421;51.030;4.006;2023-03-17T07:09:51;2.80;;;2.25;;
29416;SDS011;28421;51.030;4.006;2023-03-17T07:12:18;4.22;;;2.90;;
29416;SDS011;28421;51.030;4.006;2023-03-17T07:14:44;9.50;;;2.85;;
29416;SDS011;28421;51.030;4.006;2023-03-17T07:17:10;8.35;;;2.67;;
29416;SDS011;28421;51.030;4.006;2023-03-17T07:19:37;4.88;;;2.80;;
29416;SDS011;28421;51.030;4.006;2023-03-17T07:22:03;5.05;;;2.50;;
29416;SDS011;28421;51.030;4.006;2023-03-17T07:24:28;5.03;;;2.33;;
29416;SDS011;28421;51.030;4.006;2023-03-17T07:26:54;3.60;;;2.30;;
29416;SDS011;28421;51.030;4.006;2023-03-17T07:29:19;4.15;;;2.38;;
29416;SDS011;28421;51.030;4.006;2023-03-17T07:31:46;3.28;;;2.80;;
29416;SDS011;28421;51.030;4.006;2023-03-17T07:34:13;6.35;;;3.58;;
29416;SDS011;28421;51.030;4.006;2023-03-17T07:36:39;17.90;;;4.72;;
29416;SDS011;28421;51.030;4.006;2023-03-17T07:39:05;12.35;;;5.32;;
29416;SDS011;28421;51.030;4.006;2023-03-17T07:41:31;14.23;;;4.65;;
29416;SDS011;28421;51.030;4.006;2023-03-17T07:43:56;9.60;;;3.72;;
29416;SDS011;28421;51.030;4.006;2023-03-17T07:46:22;10.25;;;3.83;;
29416;SDS011;28421;51.030;4.006;2023-03-17T07:48:48;14.07;;;5.10;;
29416;SDS011;28421;51.030;4.006;2023-03-17T07:51:15;13.32;;;4.18;;
29416;SDS011;28421;51.030;4.006;2023-03-17T07:53:43;8.45;;;3.88;;
29416;SDS011;28421;51.030;4.006;2023-03-17T07:56:10;8.48;;;3.88;;
29416;SDS011;28421;51.030;4.006;2023-03-17T07:58:36;11.00;;;5.18;;
29416;SDS011;28421;51.030;4.006;2023-03-17T08:01:02;11.07;;;4.88;;
29416;SDS011;28421;51.030;4.006;2023-03-17T08:03:28;21.13;;;5.35;;
29416;SDS011;28421;51.030;4.006;2023-03-17T08:05:54;16.98;;;5.78;;
29416;SDS011;28421;51.030;4.006;2023-03-17T08:08:21;12.05;;;4.18;;
29416;SDS011;28421;51.030;4.006;2023-03-17T08:10:49;16.70;;;6.07;;
29416;SDS011;28421;51.030;4.006;2023-03-17T08:13:15;18.05;;;5.75;;
29416;SDS011;28421;51.030;4.006;2023-03-17T08:15:41;30.25;;;8.80;;
29416;SDS011;28421;51.030;4.006;2023-03-17T08:18:07;30.63;;;9.52;;
29416;SDS011;28421;51.030;4.006;2023-03-17T08:20:33;17.83;;;5.40;;
29416;SDS011;28421;51.030;4.006;2023-03-17T08:22:58;12.77;;;3.25;;
29416;SDS011;28421;51.030;4.006;2023-03-17T08:25:24;10.02;;;3.80;;
29416;SDS011;28421;51.030;4.006;2023-03-17T08:27:50;6.20;;;3.38;;
29416;SDS011;28421;51.030;4.006;2023-03-17T08:30:16;3.90;;;2.85;;
29416;SDS011;28421;51.030;4.006;2023-03-17T08:32:42;9.40;;;4.53;;
29416;SDS011;28421;51.030;4.006;2023-03-17T08:35:11;11.85;;;3.65;;
29416;SDS011;28421;51.030;4.006;2023-03-17T08:37:41;6.07;;;2.90;;
29416;SDS011;28421;51.030;4.006;2023-03-17T08:40:08;10.27;;;3.35;;
29416;SDS011;28421;51.030;4.006;2023-03-17T08:42:36;7.00;;;2.75;;
29416;SDS011;28421;51.030;4.006;2023-03-17T08:45:02;9.32;;;3.88;;
29416;SDS011;28421;51.030;4.006;2023-03-17T08:47:30;6.18;;;3.33;;
29416;SDS011;28421;51.030;4.006;2023-03-17T08:49:57;7.05;;;3.20;;
29416;SDS011;28421;51.030;4.006;2023-03-17T08:52:24;9.13;;;4.10;;
29416;SDS011;28421;51.030;4.006;2023-03-17T08:54:52;4.70;;;3.42;;
29416;SDS011;28421;51.030;4.006;2023-03-17T08:57:18;8.75;;;3.55;;
29416;SDS011;28421;51.030;4.006;2023-03-17T08:59:44;11.77;;;3.38;;
29416;SDS011;28421;51.030;4.006;2023-03-17T09:02:10;7.70;;;2.72;;
29416;SDS011;28421;51.030;4.006;2023-03-17T09:04:36;4.40;;;2.60;;
29416;SDS011;28421;51.030;4.006;2023-03-17T09:07:02;6.40;;;2.92;;
29416;SDS011;28421;51.030;4.006;2023-03-17T09:09:30;9.38;;;3.20;;
29416;SDS011;28421;51.030;4.006;2023-03-17T09:11:58;5.25;;;2.75;;
29416;SDS011;28421;51.030;4.006;2023-03-17T09:14:24;9.48;;;4.65;;
29416;SDS011;28421;51.030;4.006;2023-03-17T09:16:50;7.53;;;4.80;;
29416;SDS011;28421;51.030;4.006;2023-03-17T09:19:16;6.75;;;3.40;;
29416;SDS011;28421;51.030;4.006;2023-03-17T09:21:42;8.90;;;3.75;;
29416;SDS011;28421;51.030;4.006;2023-03-17T09:24:11;8.52;;;3.33;;
29416;SDS011;28421;51.030;4.006;2023-03-17T09:26:40;8.40;;;2.90;;
29416;SDS011;28421;51.030;4.006;2023-03-17T09:29:06;6.15;;;3.25;;
29416;SDS011;28421;51.030;4.006;2023-03-17T09:31:32;13.95;;;2.60;;
29416;SDS011;28421;51.030;4.006;2023-03-17T09:34:00;5.35;;;2.90;;
29416;SDS011;28421;51.030;4.006;2023-03-17T09:36:26;6.97;;;3.65;;
29416;SDS011;28421;51.030;4.006;2023-03-17T09:38:51;3.60;;;3.30;;
29416;SDS011;28421;51.030;4.006;2023-03-17T09:43:51;11.40;;;3.00;;
29416;SDS011;28421;51.030;4.006;2023-03-17T09:49:16;5.25;;;3.08;;
29416;SDS011;28421;51.030;4.006;2023-03-17T09:51:51;8.07;;;3.05;;
29416;SDS011;28421;51.030;4.006;2023-03-17T09:54:30;9.80;;;2.97;;
29416;SDS011;28421;51.030;4.006;2023-03-17T10:00:03;8.25;;;2.80;;
29416;SDS011;28421;51.030;4.006;2023-03-17T10:02:53;2.92;;;2.42;;
29416;SDS011;28421;51.030;4.006;2023-03-17T10:05:21;8.80;;;3.15;;
29416;SDS011;28421;51.030;4.006;2023-03-17T10:16:48;6.18;;;2.80;;
29416;SDS011;28421;51.030;4.006;2023-03-17T10:24:58;6.03;;;2.85;;
29416;SDS011;28421;51.030;4.006;2023-03-17T10:27:33;13.95;;;2.70;;
29416;SDS011;28421;51.030;4.006;2023-03-17T10:30:01;6.05;;;2.35;;
29416;SDS011;28421;51.030;4.006;2023-03-17T10:32:27;7.45;;;3.05;;
29416;SDS011;28421;51.030;4.006;2023-03-17T10:34:55;7.03;;;2.45;;
29416;SDS011;28421;51.030;4.006;2023-03-17T10:37:24;5.47;;;2.60;;
29416;SDS011;28421;51.030;4.006;2023-03-17T10:39:52;4.72;;;3.00;;
29416;SDS011;28421;51.030;4.006;2023-03-17T10:42:21;5.22;;;2.60;;
29416;SDS011;28421;51.030;4.006;2023-03-17T10:45:00;3.35;;;2.55;;
29416;SDS011;28421;51.030;4.006;2023-03-17T10:47:38;7.15;;;2.83;;
29416;SDS011;28421;51.030;4.006;2023-03-17T10:52:40;8.00;;;3.60;;
29416;SDS011;28421;51.030;4.006;2023-03-17T10:55:06;6.82;;;2.80;;
29416;SDS011;28421;51.030;4.006;2023-03-17T10:57:35;6.40;;;3.60;;
29416;SDS011;28421;51.030;4.006;2023-03-17T11:00:03;6.28;;;3.20;;
29416;SDS011;28421;51.030;4.006;2023-03-17T11:02:42;32.72;;;11.90;;
29416;SDS011;28421;51.030;4.006;2023-03-17T11:05:20;9.40;;;4.50;;
29416;SDS011;28421;51.030;4.006;2023-03-17T11:08:05;10.77;;;5.00;;
29416;SDS011;28421;51.030;4.006;2023-03-17T11:10:41;8.10;;;4.22;;
29416;SDS011;28421;51.030;4.006;2023-03-17T11:13:07;11.00;;;5.20;;
29416;SDS011;28421;51.030;4.006;2023-03-17T11:20:47;6.45;;;3.50;;
29416;SDS011;28421;51.030;4.006;2023-03-17T11:23:34;8.18;;;3.67;;
29416;SDS011;28421;51.030;4.006;2023-03-17T11:28:41;4.63;;;2.67;;
29416;SDS011;28421;51.030;4.006;2023-03-17T11:31:18;6.25;;;2.97;;
29416;SDS011;28421;51.030;4.006;2023-03-17T11:39:41;7.38;;;2.53;;
29416;SDS011;28421;51.030;4.006;2023-03-17T11:42:19;8.38;;;3.92;;
29416;SDS011;28421;51.030;4.006;2023-03-17T11:45:02;9.45;;;4.35;;
29416;SDS011;28421;51.030;4.006;2023-03-17T11:47:43;5.68;;;2.97;;
29416;SDS011;28421;51.030;4.006;2023-03-17T11:56:15;6.78;;;3.25;;
29416;SDS011;28421;51.030;4.006;2023-03-17T11:58:46;7.88;;;2.90;;
29416;SDS011;28421;51.030;4.006;2023-03-17T12:01:18;6.05;;;3.25;;
29416;SDS011;28421;51.030;4.006;2023-03-17T12:06:33;7.35;;;2.97;;
29416;SDS011;28421;51.030;4.006;2023-03-17T12:09:09;6.57;;;3.72;;
29416;SDS011;28421;51.030;4.006;2023-03-17T12:11:46;6.75;;;3.97;;
29416;SDS011;28421;51.030;4.006;2023-03-17T12:16:53;5.38;;;2.80;;
29416;SDS011;28421;51.030;4.006;2023-03-17T12:19:43;7.10;;;3.72;;
29416;SDS011;28421;51.030;4.006;2023-03-17T12:22:21;6.35;;;2.70;;
29416;SDS011;28421;51.030;4.006;2023-03-17T12:27:37;5.78;;;3.15;;
29416;SDS011;28421;51.030;4.006;2023-03-17T12:32:59;4.57;;;2.95;;
29416;SDS011;28421;51.030;4.006;2023-03-17T12:35:32;6.38;;;2.92;;
29416;SDS011;28421;51.030;4.006;2023-03-17T12:38:04;8.32;;;3.05;;
29416;SDS011;28421;51.030;4.006;2023-03-17T12:41:00;8.70;;;3.63;;
29416;SDS011;28421;51.030;4.006;2023-03-17T12:43:54;4.88;;;2.95;;
29416;SDS011;28421;51.030;4.006;2023-03-17T12:49:32;5.00;;;3.15;;
29416;SDS011;28421;51.030;4.006;2023-03-17T12:54:45;6.38;;;2.92;;
29416;SDS011;28421;51.030;4.006;2023-03-17T12:57:26;7.00;;;3.42;;
29416;SDS011;28421;51.030;4.006;2023-03-17T12:59:59;7.05;;;3.35;;
29416;SDS011;28421;51.030;4.006;2023-03-17T13:02:34;7.28;;;3.38;;
29416;SDS011;28421;51.030;4.006;2023-03-17T13:05:07;6.38;;;3.20;;
29416;SDS011;28421;51.030;4.006;2023-03-17T13:13:05;5.20;;;2.22;;
29416;SDS011;28421;51.030;4.006;2023-03-17T13:21:20;5.97;;;2.13;;
29416;SDS011;28421;51.030;4.006;2023-03-17T13:23:45;6.47;;;2.30;;
29416;SDS011;28421;51.030;4.006;2023-03-17T13:26:17;4.93;;;2.65;;
29416;SDS011;28421;51.030;4.006;2023-03-17T13:28:46;7.72;;;2.22;;
29416;SDS011;28421;51.030;4.006;2023-03-17T13:33:51;9.10;;;2.45;;
29416;SDS011;28421;51.030;4.006;2023-03-17T13:36:20;11.85;;;3.38;;
29416;SDS011;28421;51.030;4.006;2023-03-17T13:49:47;7.75;;;2.63;;
29416;SDS011;28421;51.030;4.006;2023-03-17T13:52:16;6.40;;;2.17;;
29416;SDS011;28421;51.030;4.006;2023-03-17T13:55:03;6.97;;;2.08;;
29416;SDS011;28421;51.030;4.006;2023-03-17T14:00:22;7.32;;;1.95;;
29416;SDS011;28421;51.030;4.006;2023-03-17T14:03:04;5.07;;;2.75;;
29416;SDS011;28421;51.030;4.006;2023-03-17T14:08:02;4.57;;;1.83;;
29416;SDS011;28421;51.030;4.006;2023-03-17T14:10:31;5.40;;;2.05;;
29416;SDS011;28421;51.030;4.006;2023-03-17T14:13:00;4.63;;;2.00;;
29416;SDS011;28421;51.030;4.006;2023-03-17T14:15:37;6.25;;;2.10;;
29416;SDS011;28421;51.030;4.006;2023-03-17T14:18:19;5.20;;;2.15;;
29416;SDS011;28421;51.030;4.006;2023-03-17T14:20:52;8.15;;;2.20;;
29416;SDS011;28421;51.030;4.006;2023-03-17T14:23:21;4.10;;;1.65;;
29416;SDS011;28421;51.030;4.006;2023-03-17T14:25:48;7.90;;;1.90;;
29416;SDS011;28421;51.030;4.006;2023-03-17T14:28:18;5.90;;;1.92;;
29416;SDS011;28421;51.030;4.006;2023-03-17T14:30:50;5.82;;;2.13;;
29416;SDS011;28421;51.030;4.006;2023-03-17T14:33:20;5.68;;;2.47;;
29416;SDS011;28421;51.030;4.006;2023-03-17T14:35:52;6.57;;;1.83;;
29416;SDS011;28421;51.030;4.006;2023-03-17T14:38:22;2.92;;;1.70;;
29416;SDS011;28421;51.030;4.006;2023-03-17T14:41:02;4.65;;;1.70;;
29416;SDS011;28421;51.030;4.006;2023-03-17T14:43:30;10.45;;;1.80;;
29416;SDS011;28421;51.030;4.006;2023-03-17T14:46:01;6.18;;;2.08;;
29416;SDS011;28421;51.030;4.006;2023-03-17T14:48:35;3.15;;;1.77;;
29416;SDS011;28421;51.030;4.006;2023-03-17T14:51:05;3.95;;;2.40;;
29416;SDS011;28421;51.030;4.006;2023-03-17T14:53:35;5.60;;;1.88;;
29416;SDS011;28421;51.030;4.006;2023-03-17T14:56:05;7.53;;;2.75;;
29416;SDS011;28421;51.030;4.006;2023-03-17T14:58:35;6.13;;;1.83;;
29416;SDS011;28421;51.030;4.006;2023-03-17T15:01:11;4.43;;;2.50;;
29416;SDS011;28421;51.030;4.006;2023-03-17T15:03:50;5.82;;;2.05;;
29416;SDS011;28421;51.030;4.006;2023-03-17T15:06:25;4.43;;;1.95;;
29416;SDS011;28421;51.030;4.006;2023-03-17T15:11:22;6.75;;;2.17;;
29416;SDS011;28421;51.030;4.006;2023-03-17T15:13:52;2.90;;;1.80;;
29416;SDS011;28421;51.030;4.006;2023-03-17T15:16:27;7.13;;;2.20;;
29416;SDS011;28421;51.030;4.006;2023-03-17T15:19:07;4.23;;;2.13;;
29416;SDS011;28421;51.030;4.006;2023-03-17T15:21:43;7.88;;;2.50;;
29416;SDS011;28421;51.030;4.006;2023-03-17T15:24:23;8.68;;;2.35;;
29416;SDS011;28421;51.030;4.006;2023-03-17T15:26:49;7.72;;;2.67;;
29416;SDS011;28421;51.030;4.006;2023-03-17T15:29:15;4.70;;;2.47;;
29416;SDS011;28421;51.030;4.006;2023-03-17T15:31:41;10.27;;;3.40;;
29416;SDS011;28421;51.030;4.006;2023-03-17T15:34:08;13.80;;;2.92;;
29416;SDS011;28421;51.030;4.006;2023-03-17T15:36:37;5.80;;;2.22;;
29416;SDS011;28421;51.030;4.006;2023-03-17T15:39:02;7.90;;;3.10;;
29416;SDS011;28421;51.030;4.006;2023-03-17T15:41:28;6.45;;;2.17;;
29416;SDS011;28421;51.030;4.006;2023-03-17T15:43:53;3.80;;;2.42;;
29416;SDS011;28421;51.030;4.006;2023-03-17T15:46:23;8.57;;;2.53;;
29416;SDS011;28421;51.030;4.006;2023-03-17T15:48:51;5.43;;;3.03;;
29416;SDS011;28421;51.030;4.006;2023-03-17T15:51:17;4.03;;;2.55;;
29416;SDS011;28421;51.030;4.006;2023-03-17T15:53:43;6.25;;;2.83;;
29416;SDS011;28421;51.030;4.006;2023-03-17T15:56:15;5.07;;;2.47;;
29416;SDS011;28421;51.030;4.006;2023-03-17T15:58:44;10.45;;;3.35;;
29416;SDS011;28421;51.030;4.006;2023-03-17T16:01:12;7.95;;;3.08;;
29416;SDS011;28421;51.030;4.006;2023-03-17T16:03:38;6.35;;;2.85;;
29416;SDS011;28421;51.030;4.006;2023-03-17T16:06:08;9.15;;;3.13;;
29416;SDS011;28421;51.030;4.006;2023-03-17T16:08:39;7.65;;;3.15;;
29416;SDS011;28421;51.030;4.006;2023-03-17T16:11:05;12.15;;;3.40;;
29416;SDS011;28421;51.030;4.006;2023-03-17T16:13:32;7.78;;;3.25;;
29416;SDS011;28421;51.030;4.006;2023-03-17T16:15:58;7.55;;;3.63;;
29416;SDS011;28421;51.030;4.006;2023-03-17T16:18:32;13.15;;;3.50;;
29416;SDS011;28421;51.030;4.006;2023-03-17T16:21:00;10.00;;;3.28;;
29416;SDS011;28421;51.030;4.006;2023-03-17T16:23:31;8.02;;;3.47;;
29416;SDS011;28421;51.030;4.006;2023-03-17T16:25:58;17.33;;;3.28;;
29416;SDS011;28421;51.030;4.006;2023-03-17T16:28:29;12.52;;;3.28;;
29416;SDS011;28421;51.030;4.006;2023-03-17T16:30:56;10.88;;;3.40;;
29416;SDS011;28421;51.030;4.006;2023-03-17T16:33:30;14.68;;;4.20;;
29416;SDS011;28421;51.030;4.006;2023-03-17T16:36:02;6.00;;;3.25;;
29416;SDS011;28421;51.030;4.006;2023-03-17T16:38:29;8.40;;;4.18;;
29416;SDS011;28421;51.030;4.006;2023-03-17T16:41:15;9.48;;;3.30;;
29416;SDS011;28421;51.030;4.006;2023-03-17T16:43:47;7.38;;;3.38;;
29416;SDS011;28421;51.030;4.006;2023-03-17T16:46:15;9.23;;;4.32;;
29416;SDS011;28421;51.030;4.006;2023-03-17T16:48:42;8.18;;;3.30;;
29416;SDS011;28421;51.030;4.006;2023-03-17T16:51:07;10.57;;;4.28;;
29416;SDS011;28421;51.030;4.006;2023-03-17T16:53:33;5.50;;;3.70;;
29416;SDS011;28421;51.030;4.006;2023-03-17T16:55:58;12.63;;;4.60;;
29416;SDS011;28421;51.030;4.006;2023-03-17T16:58:25;13.77;;;4.03;;
29416;SDS011;28421;51.030;4.006;2023-03-17T17:00:57;6.40;;;5.13;;
29416;SDS011;28421;51.030;4.006;2023-03-17T17:03:26;9.00;;;4.05;;
29416;SDS011;28421;51.030;4.006;2023-03-17T17:05:51;10.23;;;3.35;;
29416;SDS011;28421;51.030;4.006;2023-03-17T17:08:17;10.00;;;3.70;;
29416;SDS011;28421;51.030;4.006;2023-03-17T17:10:42;7.32;;;3.72;;
29416;SDS011;28421;51.030;4.006;2023-03-17T17:13:08;12.27;;;4.07;;
29416;SDS011;28421;51.030;4.006;2023-03-17T17:15:35;11.27;;;4.50;;
29416;SDS011;28421;51.030;4.006;2023-03-17T17:18:07;5.68;;;3.67;;
29416;SDS011;28421;51.030;4.006;2023-03-17T17:20:38;8.63;;;4.60;;
29416;SDS011;28421;51.030;4.006;2023-03-17T17:23:05;6.63;;;4.10;;
29416;SDS011;28421;51.030;4.006;2023-03-17T17:25:34;10.40;;;4.40;;
29416;SDS011;28421;51.030;4.006;2023-03-17T17:27:59;5.65;;;3.72;;
29416;SDS011;28421;51.030;4.006;2023-03-17T17:30:27;8.93;;;3.60;;
29416;SDS011;28421;51.030;4.006;2023-03-17T17:32:54;11.02;;;4.22;;
29416;SDS011;28421;51.030;4.006;2023-03-17T17:35:22;9.55;;;5.70;;
29416;SDS011;28421;51.030;4.006;2023-03-17T17:37:48;12.77;;;4.65;;
29416;SDS011;28421;51.030;4.006;2023-03-17T17:40:15;10.02;;;4.38;;
29416;SDS011;28421;51.030;4.006;2023-03-17T17:42:42;20.40;;;5.13;;
29416;SDS011;28421;51.030;4.006;2023-03-17T17:45:08;11.43;;;5.40;;
29416;SDS011;28421;51.030;4.006;2023-03-17T17:47:34;9.15;;;5.88;;
29416;SDS011;28421;51.030;4.006;2023-03-17T17:50:00;8.13;;;4.50;;
29416;SDS011;28421;51.030;4.006;2023-03-17T17:52:25;14.43;;;6.25;;
29416;SDS011;28421;51.030;4.006;2023-03-17T17:54:51;12.13;;;6.20;;
29416;SDS011;28421;51.030;4.006;2023-03-17T17:57:16;12.88;;;6.72;;
29416;SDS011;28421;51.030;4.006;2023-03-17T17:59:42;12.15;;;5.72;;
29416;SDS011;28421;51.030;4.006;2023-03-17T18:02:08;18.50;;;6.30;;
29416;SDS011;28421;51.030;4.006;2023-03-17T18:04:36;14.55;;;5.57;;
29416;SDS011;28421;51.030;4.006;2023-03-17T18:07:01;9.27;;;5.53;;
29416;SDS011;28421;51.030;4.006;2023-03-17T18:09:27;10.32;;;5.93;;
29416;SDS011;28421;51.030;4.006;2023-03-17T18:11:53;11.07;;;5.88;;
29416;SDS011;28421;51.030;4.006;2023-03-17T18:14:18;10.20;;;5.65;;
29416;SDS011;28421;51.030;4.006;2023-03-17T18:16:43;16.02;;;7.15;;
29416;SDS011;28421;51.030;4.006;2023-03-17T18:19:10;13.43;;;6.35;;
29416;SDS011;28421;51.030;4.006;2023-03-17T18:21:36;15.65;;;6.43;;
29416;SDS011;28421;51.030;4.006;2023-03-17T18:24:02;15.77;;;6.07;;
29416;SDS011;28421;51.030;4.006;2023-03-17T18:26:29;13.98;;;6.90;;
29416;SDS011;28421;51.030;4.006;2023-03-17T18:28:55;14.93;;;7.75;;
29416;SDS011;28421;51.030;4.006;2023-03-17T18:31:22;24.88;;;7.47;;
29416;SDS011;28421;51.030;4.006;2023-03-17T18:33:51;15.52;;;7.75;;
29416;SDS011;28421;51.030;4.006;2023-03-17T18:36:20;16.50;;;8.50;;
29416;SDS011;28421;51.030;4.006;2023-03-17T18:38:46;18.50;;;9.82;;
29416;SDS011;28421;51.030;4.006;2023-03-17T18:41:12;17.58;;;9.25;;
29416;SDS011;28421;51.030;4.006;2023-03-17T18:43:37;20.77;;;10.52;;
29416;SDS011;28421;51.030;4.006;2023-03-17T18:46:05;24.38;;;10.05;;
29416;SDS011;28421;51.030;4.006;2023-03-17T18:48:30;20.63;;;9.85;;
29416;SDS011;28421;51.030;4.006;2023-03-17T18:50:56;21.80;;;10.90;;
29416;SDS011;28421;51.030;4.006;2023-03-17T18:53:21;16.55;;;9.73;;
29416;SDS011;28421;51.030;4.006;2023-03-17T18:55:47;13.20;;;8.23;;
29416;SDS011;28421;51.030;4.006;2023-03-17T18:58:12;20.27;;;8.68;;
29416;SDS011;28421;51.030;4.006;2023-03-17T19:00:38;10.65;;;7.55;;
29416;SDS011;28421;51.030;4.006;2023-03-17T19:03:04;21.45;;;8.88;;
29416;SDS011;28421;51.030;4.006;2023-03-17T19:05:30;16.15;;;9.65;;
29416;SDS011;28421;51.030;4.006;2023-03-17T19:07:55;15.45;;;8.85;;
29416;SDS011;28421;51.030;4.006;2023-03-17T19:10:21;13.05;;;8.35;;
29416;SDS011;28421;51.030;4.006;2023-03-17T19:12:46;21.77;;;10.10;;
29416;SDS011;28421;51.030;4.006;2023-03-17T19:15:12;19.02;;;8.43;;
29416;SDS011;28421;51.030;4.006;2023-03-17T19:17:41;15.88;;;8.63;;
29416;SDS011;28421;51.030;4.006;2023-03-17T19:20:11;19.70;;;9.40;;
29416;SDS011;28421;51.030;4.006;2023-03-17T19:23:18;12.70;;;8.23;;
29416;SDS011;28421;51.030;4.006;2023-03-17T19:25:44;17.38;;;7.68;;
29416;SDS011;28421;51.030;4.006;2023-03-17T19:28:27;15.50;;;6.70;;
29416;SDS011;28421;51.030;4.006;2023-03-17T19:31:24;20.77;;;7.55;;
29416;SDS011;28421;51.030;4.006;2023-03-17T19:33:57;15.05;;;7.03;;
29416;SDS011;28421;51.030;4.006;2023-03-17T19:36:22;12.65;;;6.95;;
29416;SDS011;28421;51.030;4.006;2023-03-17T19:38:50;11.55;;;7.10;;
29416;SDS011;28421;51.030;4.006;2023-03-17T19:41:15;12.20;;;6.82;;
29416;SDS011;28421;51.030;4.006;2023-03-17T19:43:59;17.45;;;7.38;;
29416;SDS011;28421;51.030;4.006;2023-03-17T19:46:28;19.48;;;6.68;;
29416;SDS011;28421;51.030;4.006;2023-03-17T19:49:24;15.07;;;6.47;;
29416;SDS011;28421;51.030;4.006;2023-03-17T19:51:57;16.10;;;7.25;;
29416;SDS011;28421;51.030;4.006;2023-03-17T19:55:14;14.38;;;6.47;;
29416;SDS011;28421;51.030;4.006;2023-03-17T19:58:27;12.10;;;6.72;;
29416;SDS011;28421;51.030;4.006;2023-03-17T20:01:07;13.07;;;6.30;;
29416;SDS011;28421;51.030;4.006;2023-03-17T20:03:57;18.60;;;5.78;;
29416;SDS011;28421;51.030;4.006;2023-03-17T20:10:58;10.57;;;6.07;;
29416;SDS011;28421;51.030;4.006;2023-03-17T20:13:58;12.05;;;5.45;;
29416;SDS011;28421;51.030;4.006;2023-03-17T20:16:59;10.55;;;5.85;;
29416;SDS011;28421;51.030;4.006;2023-03-17T20:19:29;11.73;;;6.18;;
29416;SDS011;28421;51.030;4.006;2023-03-17T20:25:51;13.25;;;6.13;;
29416;SDS011;28421;51.030;4.006;2023-03-17T20:28:47;11.65;;;5.15;;
29416;SDS011;28421;51.030;4.006;2023-03-17T20:31:27;12.95;;;6.28;;
29416;SDS011;28421;51.030;4.006;2023-03-17T20:33:56;19.52;;;6.72;;
29416;SDS011;28421;51.030;4.006;2023-03-17T20:37:27;20.08;;;9.10;;
29416;SDS011;28421;51.030;4.006;2023-03-17T20:40:43;18.52;;;7.78;;
29416;SDS011;28421;51.030;4.006;2023-03-17T20:46:48;17.88;;;7.45;;
29416;SDS011;28421;51.030;4.006;2023-03-17T20:53:48;10.45;;;5.82;;
29416;SDS011;28421;51.030;4.006;2023-03-17T20:56:31;12.63;;;6.63;;
29416;SDS011;28421;51.030;4.006;2023-03-17T20:59:45;9.73;;;4.85;;
29416;SDS011;28421;51.030;4.006;2023-03-17T21:02:46;12.68;;;6.13;;
29416;SDS011;28421;51.030;4.006;2023-03-17T21:09:53;12.23;;;6.07;;
29416;SDS011;28421;51.030;4.006;2023-03-17T21:12:44;13.88;;;6.55;;
29416;SDS011;28421;51.030;4.006;2023-03-17T21:18:46;12.02;;;5.82;;
29416;SDS011;28421;51.030;4.006;2023-03-17T21:29:45;13.23;;;6.40;;
29416;SDS011;28421;51.030;4.006;2023-03-17T21:32:49;19.02;;;6.28;;
29416;SDS011;28421;51.030;4.006;2023-03-17T21:36:17;12.35;;;4.97;;
29416;SDS011;28421;51.030;4.006;2023-03-17T21:38:56;14.02;;;6.57;;
29416;SDS011;28421;51.030;4.006;2023-03-17T21:43:55;13.93;;;5.68;;
29416;SDS011;28421;51.030;4.006;2023-03-17T21:46:28;11.48;;;6.30;;
29416;SDS011;28421;51.030;4.006;2023-03-17T21:48:55;13.98;;;6.85;;
29416;SDS011;28421;51.030;4.006;2023-03-17T21:51:23;14.15;;;6.75;;
29416;SDS011;28421;51.030;4.006;2023-03-17T21:53:49;11.70;;;6.40;;
29416;SDS011;28421;51.030;4.006;2023-03-17T21:56:27;12.70;;;7.18;;
29416;SDS011;28421;51.030;4.006;2023-03-17T21:58:58;12.25;;;6.05;;
29416;SDS011;28421;51.030;4.006;2023-03-17T22:01:24;10.77;;;6.13;;
29416;SDS011;28421;51.030;4.006;2023-03-17T22:03:50;11.77;;;6.45;;
29416;SDS011;28421;51.030;4.006;2023-03-17T22:06:20;10.60;;;6.55;;
29416;SDS011;28421;51.030;4.006;2023-03-17T22:09:09;19.52;;;7.43;;
29416;SDS011;28421;51.030;4.006;2023-03-17T22:11:40;13.52;;;6.43;;
29416;SDS011;28421;51.030;4.006;2023-03-17T22:14:05;17.60;;;6.72;;
29416;SDS011;28421;51.030;4.006;2023-03-17T22:16:45;13.15;;;6.40;;
29416;SDS011;28421;51.030;4.006;2023-03-17T22:19:11;18.60;;;6.93;;
29416;SDS011;28421;51.030;4.006;2023-03-17T22:21:37;11.27;;;6.38;;